createdAt,value
2023-01-01T00:00:49.981Z,98877.16
2023-01-01T00:03:18.214Z,98883.22
2023-01-01T00:05:46.253Z,98882.00
2023-01-01T00:08:14.675Z,98888.44
2023-01-01T00:10:44.295Z,98891.91
2023-01-01T00:13:14.624Z,98892.88
2023-01-01T00:15:42.783Z,98901.56
2023-01-01T00:18:10.895Z,98905.22
2023-01-01T00:20:39.088Z,98916.34
2023-01-01T00:23:07.283Z,98913.09
2023-01-01T00:25:35.653Z,98920.78
2023-01-01T00:28:05.457Z,98929.06
2023-01-01T00:30:33.735Z,98934.50
2023-01-01T00:33:02.061Z,98933.91
2023-01-01T00:35:30.214Z,98954.91
2023-01-01T00:37:58.283Z,98954.50
2023-01-01T00:40:26.561Z,98959.13
2023-01-01T00:42:54.740Z,98965.59
2023-01-01T00:45:24.444Z,98969.41
2023-01-01T00:47:54.529Z,98972.03
2023-01-01T00:50:24.187Z,98968.44
2023-01-01T00:52:52.377Z,98974.47
2023-01-01T00:55:20.538Z,98979.09
2023-01-01T00:57:49.118Z,98991.63
2023-01-01T01:00:18.449Z,98994.69
2023-01-01T01:02:48.125Z,98989.81
2023-01-01T01:05:16.487Z,99005.50
2023-01-01T01:07:44.711Z,99015.19
2023-01-01T01:10:13.360Z,99023.03
2023-01-01T01:12:41.621Z,99032.88
2023-01-01T01:15:11.253Z,99040.31
2023-01-01T01:17:41.028Z,99045.97
2023-01-01T01:20:12.175Z,99053.22
2023-01-01T01:22:41.160Z,99061.88
2023-01-01T01:25:10.022Z,99072.75
2023-01-01T01:27:38.187Z,99069.72
2023-01-01T01:30:07.782Z,99088.66
2023-01-01T01:32:36.054Z,99092.25
2023-01-01T01:35:04.417Z,99097.69
2023-01-01T01:37:34.011Z,99103.31
2023-01-01T01:40:02.161Z,99101.91
2023-01-01T01:42:30.276Z,99112.75
2023-01-01T01:45:00.647Z,99126.88
2023-01-01T01:47:33.728Z,99126.44
2023-01-01T01:50:08.831Z,99142.00
2023-01-01T01:52:42.402Z,99149.88
2023-01-01T01:55:12.066Z,99154.47
2023-01-01T01:57:42.006Z,99165.78
2023-01-01T02:00:11.959Z,99170.78
2023-01-01T02:02:49.544Z,99178.66
2023-01-01T02:05:22.092Z,99174.97
2023-01-01T02:07:53.769Z,99183.84
2023-01-01T02:10:21.941Z,99194.34
2023-01-01T02:12:50.385Z,99192.06
2023-01-01T02:15:18.502Z,99194.69
2023-01-01T02:17:55.884Z,99206.00
2023-01-01T02:20:43.506Z,99204.19
2023-01-01T02:23:34.332Z,99212.44
2023-01-01T02:26:23.070Z,99219.66
2023-01-01T02:29:00.020Z,99213.16
2023-01-01T02:31:30.773Z,99219.03
2023-01-01T02:34:02.809Z,99225.91
2023-01-01T02:36:34.715Z,99226.34
2023-01-01T02:39:05.506Z,99223.72
2023-01-01T02:41:37.899Z,99216.47
2023-01-01T02:44:07.782Z,99222.97
2023-01-01T02:46:37.404Z,99228.66
2023-01-01T02:49:10.805Z,99223.41
2023-01-01T02:51:59.197Z,99216.56
2023-01-01T02:54:36.788Z,99214.09
2023-01-01T02:57:11.301Z,99216.72
2023-01-01T03:00:13.391Z,99212.50
2023-01-01T03:02:51.533Z,99220.56
2023-01-01T03:05:26.999Z,99215.34
2023-01-01T03:08:05.756Z,99235.16
2023-01-01T03:10:42.608Z,99234.53
2023-01-01T03:13:16.855Z,99229.72
2023-01-01T03:15:52.983Z,99235.34
2023-01-01T03:18:26.538Z,99231.34
2023-01-01T03:20:59.025Z,99242.84
2023-01-01T03:23:31.317Z,99240.81
2023-01-01T03:26:04.377Z,99241.66
2023-01-01T03:28:37.895Z,99230.34
2023-01-01T03:31:08.095Z,99247.06
2023-01-01T03:33:40.977Z,99240.41
2023-01-01T03:36:13.284Z,99245.66
2023-01-01T03:38:46.534Z,99241.38
2023-01-01T03:41:18.324Z,99247.63
2023-01-01T03:43:50.950Z,99239.97
2023-01-01T03:46:25.351Z,99247.03
2023-01-01T03:49:04.239Z,99246.38
2023-01-01T03:51:53.958Z,99246.38
2023-01-01T03:54:29.300Z,99250.00
2023-01-01T03:57:05.413Z,99245.97
2023-01-01T03:59:40.597Z,99260.84
2023-01-01T04:02:12.755Z,99257.41
2023-01-01T04:04:41.223Z,99259.22
2023-01-01T04:07:15.091Z,99256.00
2023-01-01T04:09:50.809Z,99251.56
2023-01-01T04:12:20.291Z,99249.94
2023-01-01T04:14:48.474Z,99261.00
2023-01-01T04:17:18.544Z,99253.47
2023-01-01T04:19:53.136Z,99258.72
2023-01-01T04:22:23.672Z,99257.09
2023-01-01T04:24:52.093Z,99251.41
2023-01-01T04:27:20.286Z,99270.56
2023-01-01T04:29:48.440Z,99272.38
2023-01-01T04:32:18.085Z,99273.38
2023-01-01T04:34:46.328Z,99276.63
2023-01-01T04:37:14.762Z,99273.38
2023-01-01T04:39:43.080Z,99283.69
2023-01-01T04:42:11.566Z,99280.25
2023-01-01T04:44:39.768Z,99284.88
2023-01-01T04:47:09.437Z,99289.31
2023-01-01T04:49:38.980Z,99291.09
2023-01-01T04:52:07.417Z,99300.78
2023-01-01T04:54:35.613Z,99290.28
2023-01-01T04:57:03.738Z,99298.16
2023-01-01T04:59:32.194Z,99304.38
2023-01-01T05:02:00.700Z,99307.00
2023-01-01T05:04:29.069Z,99307.00
2023-01-01T05:06:58.530Z,99306.00
2023-01-01T05:09:26.737Z,99311.09
2023-01-01T05:11:55.914Z,99312.72
2023-01-01T05:14:24.163Z,99317.13
2023-01-01T05:16:53.964Z,99317.13
2023-01-01T05:19:22.141Z,99319.56
2023-01-01T05:21:50.473Z,99321.38
2023-01-01T05:24:20.049Z,99329.88
2023-01-01T05:26:48.443Z,99329.50
2023-01-01T05:29:17.539Z,99321.66
2023-01-01T05:31:46.916Z,99317.22
2023-01-01T05:34:15.531Z,99307.97
2023-01-01T05:36:43.780Z,99305.00
2023-01-01T05:39:13.815Z,99296.75
2023-01-01T05:41:43.685Z,99298.81
2023-01-01T05:44:12.006Z,99295.66
2023-01-01T05:46:40.589Z,99297.09
2023-01-01T05:49:11.843Z,99295.09
2023-01-01T05:56:38.201Z,99310.09
2023-01-01T05:59:07.810Z,99315.16
2023-01-01T06:01:41.785Z,99325.66
2023-01-01T06:04:13.526Z,99316.59
2023-01-01T06:06:41.767Z,99314.25
2023-01-01T06:09:11.757Z,99320.91
2023-01-01T06:11:39.970Z,99324.59
2023-01-01T06:14:09.545Z,99322.63
2023-01-01T06:16:37.792Z,99328.28
2023-01-01T06:19:06.072Z,99327.47
2023-01-01T06:21:34.358Z,99326.50
2023-01-01T06:24:02.664Z,99326.50
2023-01-01T06:26:32.770Z,99323.03
2023-01-01T06:29:01.968Z,99333.53
2023-01-01T06:31:38.368Z,99334.53
2023-01-01T06:34:09.190Z,99322.63
2023-01-01T06:36:37.437Z,99322.41
2023-01-01T06:39:06.238Z,99321.00
2023-01-01T06:41:34.420Z,99316.91
2023-01-01T06:44:03.115Z,99317.28
2023-01-01T06:46:34.112Z,99327.34
2023-01-01T06:49:04.855Z,99328.53
2023-01-01T06:51:39.740Z,99331.34
2023-01-01T06:54:09.204Z,99332.16
2023-01-01T06:56:37.936Z,99324.28
2023-01-01T06:59:06.720Z,99335.59
2023-01-01T07:01:40.092Z,99324.09
2023-01-01T07:04:15.231Z,99323.09
2023-01-01T07:06:43.888Z,99319.66
2023-01-01T07:09:12.001Z,99317.03
2023-01-01T07:11:40.235Z,99312.44
2023-01-01T07:14:08.406Z,99311.63
2023-01-01T07:16:38.102Z,99313.41
2023-01-01T07:19:06.376Z,99321.28
2023-01-01T07:21:44.268Z,99327.34
2023-01-01T07:24:15.450Z,99324.34
2023-01-01T07:26:43.650Z,99325.16
2023-01-01T07:29:13.036Z,99329.44
2023-01-01T07:31:45.018Z,99329.84
2023-01-01T07:34:16.784Z,99322.97
2023-01-01T07:36:45.046Z,99329.03
2023-01-01T07:39:13.207Z,99326.81
2023-01-01T07:41:41.472Z,99330.22
2023-01-01T07:44:09.799Z,99337.09
2023-01-01T07:46:38.318Z,99335.47
2023-01-01T07:49:08.098Z,99347.94
2023-01-01T07:51:36.386Z,99340.91
2023-01-01T07:54:07.400Z,99353.19
2023-01-01T07:56:36.609Z,99354.81
2023-01-01T07:59:05.159Z,99363.69
2023-01-01T08:01:36.259Z,99360.72
2023-01-01T08:04:05.141Z,99361.53
2023-01-01T08:06:34.717Z,99358.91
2023-01-01T08:09:04.942Z,99357.72
2023-01-01T08:11:33.025Z,99355.09
2023-01-01T08:14:01.430Z,99357.72
2023-01-01T08:16:29.631Z,99351.66
2023-01-01T08:18:58.089Z,99358.69
2023-01-01T08:21:26.549Z,99347.25
2023-01-01T08:23:56.059Z,99357.53
2023-01-01T08:26:30.625Z,99350.47
2023-01-01T08:28:59.532Z,99355.91
2023-01-01T08:31:27.781Z,99363.59
2023-01-01T08:33:56.181Z,99369.03
2023-01-01T08:36:24.590Z,99363.78
2023-01-01T08:38:52.737Z,99371.47
2023-01-01T08:41:22.263Z,99364.22
2023-01-01T08:43:50.539Z,99370.47
2023-01-01T08:46:19.017Z,99375.50
2023-01-01T08:48:47.169Z,99381.59
2023-01-01T08:51:15.281Z,99384.22
2023-01-01T08:53:48.779Z,99398.16
2023-01-01T08:56:19.441Z,99405.38
2023-01-01T08:58:49.715Z,99407.63
2023-01-01T09:01:18.139Z,99419.75
2023-01-01T09:03:46.372Z,99429.44
2023-01-01T09:06:14.995Z,99426.19
2023-01-01T09:08:43.088Z,99430.81
2023-01-01T09:11:22.808Z,99442.84
2023-01-01T09:13:52.856Z,99435.25
2023-01-01T09:16:21.560Z,99429.38
2023-01-01T09:18:49.938Z,99424.94
2023-01-01T09:21:18.050Z,99425.75
2023-01-01T09:23:46.226Z,99432.97
2023-01-01T09:26:14.369Z,99433.16
2023-01-01T09:28:42.637Z,99442.03
2023-01-01T09:31:12.341Z,99455.72
2023-01-01T09:33:40.966Z,99458.53
2023-01-01T09:36:16.738Z,99466.19
2023-01-01T09:38:44.784Z,99466.56
2023-01-01T09:41:23.712Z,99475.88
2023-01-01T09:44:00.413Z,99481.13
2023-01-01T09:46:32.024Z,99483.75
2023-01-01T09:49:04.347Z,99492.91
2023-01-01T09:51:43.258Z,99505.28
2023-01-01T09:54:24.357Z,99511.25
2023-01-01T09:56:57.184Z,99515.41
2023-01-01T09:59:25.877Z,99520.13
2023-01-01T10:02:01.671Z,99529.53
2023-01-01T10:04:42.716Z,99533.03
2023-01-01T10:07:19.612Z,99537.94
2023-01-01T10:09:57.514Z,99540.81
2023-01-01T10:12:36.505Z,99540.28
2023-01-01T10:15:12.891Z,99534.09
2023-01-01T10:17:46.474Z,99538.16
2023-01-01T10:20:21.731Z,99544.47
2023-01-01T10:22:53.998Z,99539.16
2023-01-01T10:25:24.505Z,99539.34
2023-01-01T10:27:59.820Z,99553.84
2023-01-01T10:30:29.643Z,99549.97
2023-01-01T10:33:00.199Z,99557.31
2023-01-01T10:35:35.781Z,99560.09
2023-01-01T10:38:05.730Z,99572.44
2023-01-01T10:40:34.813Z,99576.41
2023-01-01T10:43:04.469Z,99583.13
2023-01-01T10:45:35.456Z,99595.97
2023-01-01T10:48:19.989Z,99588.81
2023-01-01T10:50:52.033Z,99593.09
2023-01-01T10:53:27.238Z,99601.22
2023-01-01T10:56:02.893Z,99604.47
2023-01-01T10:58:44.245Z,99602.75
2023-01-01T11:01:21.167Z,99601.75
2023-01-01T11:03:58.382Z,99601.56
2023-01-01T11:06:29.039Z,99603.50
2023-01-01T11:08:58.787Z,99610.38
2023-01-01T11:11:32.144Z,99609.34
2023-01-01T11:14:04.664Z,99611.97
2023-01-01T11:16:33.732Z,99616.22
2023-01-01T11:19:07.596Z,99618.03
2023-01-01T11:21:36.611Z,99622.13
2023-01-01T11:24:22.269Z,99630.00
2023-01-01T11:26:54.910Z,99631.81
2023-01-01T11:29:27.573Z,99631.44
2023-01-01T11:31:57.796Z,99626.03
2023-01-01T11:34:34.129Z,99633.78
2023-01-01T11:37:25.017Z,99634.16
2023-01-01T11:39:55.192Z,99643.03
2023-01-01T11:42:26.857Z,99639.81
2023-01-01T11:44:58.460Z,99640.72
2023-01-01T11:47:29.580Z,99637.47
2023-01-01T11:50:03.571Z,99646.78
2023-01-01T11:52:40.090Z,99651.25
2023-01-01T11:55:29.871Z,99659.47
2023-01-01T11:58:05.721Z,99658.50
2023-01-01T12:00:37.845Z,99661.13
2023-01-01T12:03:17.012Z,99653.69
2023-01-01T12:05:54.236Z,99661.50
2023-01-01T12:08:32.342Z,99668.31
2023-01-01T12:11:07.818Z,99674.09
2023-01-01T12:13:45.890Z,99671.09
2023-01-01T12:16:17.987Z,99675.53
2023-01-01T12:18:51.223Z,99684.59
2023-01-01T12:21:24.438Z,99685.63
2023-01-01T12:23:52.761Z,99691.03
2023-01-01T12:26:26.195Z,99695.19
2023-01-01T12:29:18.344Z,99705.25
2023-01-01T12:31:55.161Z,99703.09
2023-01-01T12:34:31.929Z,99707.34
2023-01-01T12:37:13.459Z,99708.16
2023-01-01T12:40:29.806Z,99710.50
2023-01-01T12:43:03.971Z,99699.84
2023-01-01T12:45:51.869Z,99706.06
2023-01-01T12:48:35.177Z,99707.19
2023-01-01T12:51:13.306Z,99713.25
2023-01-01T12:53:51.282Z,99722.09
2023-01-01T12:56:27.760Z,99722.47
2023-01-01T12:59:00.224Z,99731.78
2023-01-01T13:01:34.072Z,99740.13
2023-01-01T13:04:04.357Z,99735.22
2023-01-01T13:06:39.662Z,99730.63
2023-01-01T13:09:15.214Z,99749.38
2023-01-01T13:11:45.680Z,99747.75
2023-01-01T13:14:14.370Z,99741.31
2023-01-01T13:16:44.193Z,99754.88
2023-01-01T13:19:27.779Z,99763.41
2023-01-01T13:21:55.884Z,99765.41
2023-01-01T13:24:26.979Z,99776.72
2023-01-01T13:26:55.523Z,99781.53
2023-01-01T13:29:45.095Z,99786.31
2023-01-01T13:32:14.906Z,99788.31
2023-01-01T13:35:17.762Z,99791.03
2023-01-01T13:37:48.493Z,99794.66
2023-01-01T13:40:54.234Z,99798.78
2023-01-01T13:43:30.769Z,99805.84
2023-01-01T13:46:13.077Z,99802.59
2023-01-01T13:49:22.097Z,99801.78
2023-01-01T13:52:05.829Z,99808.72
2023-01-01T13:55:08.363Z,99801.56
2023-01-01T13:58:15.178Z,99801.91
2023-01-01T14:01:02.634Z,99799.75
2023-01-01T14:03:39.409Z,99794.78
2023-01-01T14:06:13.883Z,99805.22
2023-01-01T14:08:42.079Z,99806.31
2023-01-01T14:11:20.972Z,99811.22
2023-01-01T14:13:49.304Z,99809.22
2023-01-01T14:16:19.587Z,99807.06
2023-01-01T14:18:50.677Z,99808.50
2023-01-01T14:21:21.558Z,99812.41
2023-01-01T14:23:52.488Z,99813.22
2023-01-01T14:26:23.001Z,99823.56
2023-01-01T14:28:56.377Z,99816.31
2023-01-01T14:31:30.214Z,99834.06
2023-01-01T14:33:58.629Z,99827.53
2023-01-01T14:36:28.525Z,99831.31
2023-01-01T14:38:58.573Z,99834.97
2023-01-01T14:41:30.338Z,99839.06
2023-01-01T14:44:00.693Z,99835.41
2023-01-01T14:46:31.011Z,99839.06
2023-01-01T14:49:02.373Z,99841.22
2023-01-01T14:51:33.343Z,99834.16
2023-01-01T14:54:04.171Z,99841.41
2023-01-01T14:56:34.976Z,99850.91
2023-01-01T14:59:08.621Z,99839.94
2023-01-01T15:01:39.725Z,99843.19
2023-01-01T15:04:21.752Z,99846.34
2023-01-01T15:06:54.701Z,99837.66
2023-01-01T15:09:22.861Z,99843.56
2023-01-01T15:11:53.027Z,99843.72
2023-01-01T15:14:32.918Z,99849.63
2023-01-01T15:17:04.668Z,99845.38
2023-01-01T15:19:35.011Z,99852.25
2023-01-01T15:22:09.067Z,99848.81
2023-01-01T15:24:38.838Z,99856.03
2023-01-01T15:27:08.961Z,99859.84
2023-01-01T15:29:39.567Z,99849.50
2023-01-01T15:32:11.493Z,99841.81
2023-01-01T15:34:44.090Z,99839.53
2023-01-01T15:37:16.116Z,99841.84
2023-01-01T15:39:50.311Z,99840.75
2023-01-01T15:42:32.892Z,99858.03
2023-01-01T15:45:21.708Z,99854.47
2023-01-01T15:47:53.174Z,99856.63
2023-01-01T15:50:22.499Z,99863.00
2023-01-01T15:52:55.833Z,99858.28
2023-01-01T15:55:29.605Z,99875.22
2023-01-01T15:57:58.488Z,99868.50
2023-01-01T16:00:29.563Z,99868.50
2023-01-01T16:03:03.239Z,99869.16
2023-01-01T16:05:32.566Z,99865.69
2023-01-01T16:08:02.202Z,99869.97
2023-01-01T16:10:31.880Z,99868.16
2023-01-01T16:13:00.367Z,99869.16
2023-01-01T16:15:31.459Z,99863.91
2023-01-01T16:18:01.019Z,99862.09
2023-01-01T16:20:29.661Z,99863.72
2023-01-01T16:22:57.725Z,99866.34
2023-01-01T16:25:28.226Z,99869.16
2023-01-01T16:27:56.535Z,99864.06
2023-01-01T16:30:29.528Z,99860.44
2023-01-01T16:33:01.656Z,99859.63
2023-01-01T16:35:29.904Z,99870.94
2023-01-01T16:37:58.000Z,99873.41
2023-01-01T16:40:26.191Z,99867.34
2023-01-01T16:42:54.264Z,99871.94
2023-01-01T16:45:22.370Z,99872.09
2023-01-01T16:47:50.739Z,99868.00
2023-01-01T16:50:20.406Z,99875.72
2023-01-01T16:52:48.546Z,99873.25
2023-01-01T16:55:16.860Z,99875.88
2023-01-01T16:57:45.017Z,99869.00
2023-01-01T17:00:14.118Z,99876.88
2023-01-01T17:02:42.748Z,99881.66
2023-01-01T17:05:11.686Z,99877.41
2023-01-01T17:07:41.424Z,99881.66
2023-01-01T17:10:10.042Z,99877.75
2023-01-01T17:12:38.235Z,99895.28
2023-01-01T17:15:07.691Z,99897.47
2023-01-01T17:17:35.897Z,99902.84
2023-01-01T17:20:04.272Z,99891.53
2023-01-01T17:22:34.484Z,99894.34
2023-01-01T17:25:04.329Z,99897.97
2023-01-01T17:27:32.385Z,99900.75
2023-01-01T17:30:00.698Z,99898.31
2023-01-01T17:32:28.967Z,99910.44
2023-01-01T17:34:57.118Z,99903.56
2023-01-01T17:37:25.243Z,99905.53
2023-01-01T17:39:53.395Z,99909.13
2023-01-01T17:42:22.883Z,99913.75
2023-01-01T17:44:51.172Z,99914.56
2023-01-01T17:47:19.395Z,99913.75
2023-01-01T17:49:48.669Z,99921.59
2023-01-01T17:52:16.787Z,99924.22
2023-01-01T17:54:44.992Z,99921.44
2023-01-01T17:57:13.136Z,99926.53
2023-01-01T17:59:42.645Z,99928.16
2023-01-01T18:02:13.416Z,99927.78
2023-01-01T18:04:46.611Z,99932.22
2023-01-01T18:07:14.797Z,99937.16
2023-01-01T18:09:42.849Z,99936.31
2023-01-01T18:12:11.045Z,99937.16
2023-01-01T18:14:40.430Z,99944.03
2023-01-01T18:17:09.902Z,99951.25
2023-01-01T18:19:39.291Z,99947.81
2023-01-01T18:22:07.720Z,99946.00
2023-01-01T18:24:35.970Z,99950.44
2023-01-01T18:27:04.191Z,99946.00
2023-01-01T18:29:43.242Z,99950.91
2023-01-01T18:32:12.723Z,99957.00
2023-01-01T18:34:40.864Z,99954.38
2023-01-01T18:37:09.417Z,99958.63
2023-01-01T18:39:41.934Z,99967.13
2023-01-01T18:42:25.439Z,99956.63
2023-01-01T18:44:59.431Z,99958.44
2023-01-01T18:47:29.059Z,99962.22
2023-01-01T18:50:09.817Z,99955.00
2023-01-01T18:52:37.965Z,99952.56
2023-01-01T18:55:13.968Z,99962.88
2023-01-01T18:57:42.869Z,99963.88
2023-01-01T19:00:22.306Z,99969.44
2023-01-01T19:02:57.655Z,99974.06
2023-01-01T19:05:28.228Z,99978.31
2023-01-01T19:08:03.778Z,99977.81
2023-01-01T19:10:37.185Z,99980.13
2023-01-01T19:13:17.709Z,99988.69
2023-01-01T19:15:47.377Z,99999.19
2023-01-01T19:18:31.899Z,99999.50
2023-01-01T19:21:14.372Z,100000.31
2023-01-01T19:23:50.355Z,100003.31
2023-01-01T19:26:24.539Z,100016.75
2023-01-01T19:28:55.414Z,100021.50
2023-01-01T19:31:23.704Z,100029.72
2023-01-01T19:33:53.485Z,100034.94
2023-01-01T19:36:21.781Z,100051.50
2023-01-01T19:38:49.867Z,100047.59
2023-01-01T19:41:18.098Z,100053.47
2023-01-01T19:43:46.166Z,100055.59
2023-01-01T19:46:14.390Z,100056.25
2023-01-01T19:48:42.632Z,100064.44
2023-01-01T19:51:12.205Z,100066.41
2023-01-01T19:53:40.371Z,100062.63
2023-01-01T19:56:09.569Z,100066.25
2023-01-01T19:58:37.801Z,100072.28
2023-01-01T20:01:06.194Z,100079.81
2023-01-01T20:06:24.212Z,100095.69
2023-01-01T20:08:52.700Z,100094.22
2023-01-01T20:11:20.856Z,100105.69
2023-01-01T20:13:49.694Z,100106.97
2023-01-01T20:16:17.989Z,100112.34
2023-01-01T20:18:46.283Z,100115.44
2023-01-01T20:21:32.035Z,100117.44
2023-01-01T20:24:01.601Z,100123.78
2023-01-01T20:26:29.782Z,100132.50
2023-01-01T20:29:15.154Z,100133.91
2023-01-01T20:31:44.040Z,100132.75
2023-01-01T20:34:12.810Z,100139.78
2023-01-01T20:36:58.136Z,100132.13
2023-01-01T20:39:28.228Z,100142.06
2023-01-01T20:41:56.577Z,100145.00
2023-01-01T20:44:24.774Z,100151.56
2023-01-01T20:46:53.358Z,100159.72
2023-01-01T20:49:22.627Z,100167.84
2023-01-01T20:51:52.525Z,100173.72
2023-01-01T20:54:21.357Z,100176.63
2023-01-01T20:56:51.086Z,100182.84
2023-01-01T20:59:37.422Z,100179.59
2023-01-01T21:02:07.646Z,100185.28
2023-01-01T21:04:38.942Z,100180.34
2023-01-01T21:07:08.330Z,100187.03
2023-01-01T21:09:36.549Z,100193.25
2023-01-01T21:12:07.258Z,100193.69
2023-01-01T21:14:35.694Z,100196.31
2023-01-01T21:17:18.813Z,100204.00
2023-01-01T21:19:47.382Z,100212.31
2023-01-01T21:22:15.779Z,100215.09
2023-01-01T21:24:46.297Z,100222.13
2023-01-01T21:27:24.092Z,100221.44
2023-01-01T21:29:56.929Z,100227.81
2023-01-01T21:32:26.428Z,100229.75
2023-01-01T21:34:56.575Z,100241.19
2023-01-01T21:37:45.144Z,100235.25
2023-01-01T21:40:41.744Z,100244.41
2023-01-01T21:43:30.440Z,100249.94
2023-01-01T21:46:13.215Z,100249.25
2023-01-01T21:48:43.726Z,100258.50
2023-01-01T21:51:19.827Z,100257.69
2023-01-01T21:53:47.993Z,100268.47
2023-01-01T21:56:28.414Z,100273.03
2023-01-01T21:59:21.297Z,100274.16
2023-01-01T22:01:50.392Z,100282.13
2023-01-01T22:04:26.520Z,100283.34
2023-01-01T22:06:56.925Z,100278.72
2023-01-01T22:09:31.638Z,100285.91
2023-01-01T22:12:07.277Z,100291.44
2023-01-01T22:14:40.346Z,100295.28
2023-01-01T22:17:16.017Z,100303.31
2023-01-01T22:19:46.298Z,100317.63
2023-01-01T22:22:16.726Z,100324.34
2023-01-01T22:24:46.237Z,100321.22
2023-01-01T22:27:36.897Z,100325.75
2023-01-01T22:30:31.297Z,100328.25
2023-01-01T22:33:03.725Z,100327.81
2023-01-01T22:35:33.911Z,100331.91
2023-01-01T22:38:04.296Z,100329.97
2023-01-01T22:40:35.317Z,100338.63
2023-01-01T22:43:06.923Z,100342.47
2023-01-01T22:45:40.202Z,100347.41
2023-01-01T22:48:11.842Z,100345.44
2023-01-01T22:50:40.627Z,100351.66
2023-01-01T22:53:08.760Z,100354.94
2023-01-01T22:55:36.999Z,100355.91
2023-01-01T22:58:05.076Z,100354.28
2023-01-01T23:00:33.206Z,100347.25
2023-01-01T23:03:02.823Z,100367.03
2023-01-01T23:05:31.473Z,100364.56
2023-01-01T23:08:00.202Z,100371.59
2023-01-01T23:10:30.889Z,100379.44
2023-01-01T23:13:19.262Z,100386.63
2023-01-01T23:16:01.695Z,100396.38
2023-01-01T23:18:36.891Z,100407.00
2023-01-01T23:21:08.583Z,100403.69
2023-01-01T23:23:38.023Z,100410.59
2023-01-01T23:26:16.783Z,100410.00
2023-01-01T23:28:45.262Z,100412.19
2023-01-01T23:31:19.752Z,100423.06
2023-01-01T23:33:55.254Z,100418.50
2023-01-01T23:36:23.855Z,100427.69
2023-01-01T23:38:52.539Z,100425.78
2023-01-01T23:41:20.654Z,100434.94
2023-01-01T23:43:48.800Z,100441.84
2023-01-01T23:46:17.345Z,100438.25
2023-01-01T23:48:47.768Z,100442.53
2023-01-01T23:51:18.494Z,100444.84
2023-01-01T23:53:46.916Z,100439.09
2023-01-01T23:56:16.217Z,100442.78
2023-01-01T23:58:44.476Z,100439.38
